createdAt,value
2023-02-11T00:01:38.684Z,13.01
2023-02-11T00:04:07.212Z,13.04
2023-02-11T00:06:35.585Z,13.07
2023-02-11T00:09:03.746Z,13.10
2023-02-11T00:11:31.628Z,13.11
2023-02-11T00:13:59.592Z,13.14
2023-02-11T00:16:27.498Z,13.14
2023-02-11T00:18:57.141Z,13.10
2023-02-11T00:21:26.134Z,13.04
2023-02-11T00:23:54.972Z,13.00
2023-02-11T00:26:23.704Z,12.95
2023-02-11T00:28:51.762Z,12.95
2023-02-11T00:31:20.278Z,12.92
2023-02-11T00:33:48.310Z,12.84
2023-02-11T00:36:18.526Z,12.87
2023-02-11T00:38:46.641Z,12.84
2023-02-11T00:41:18.149Z,12.78
2023-02-11T00:43:46.071Z,12.78
2023-02-11T00:46:14.495Z,12.74
2023-02-11T00:48:42.448Z,12.73
2023-02-11T00:51:10.393Z,12.73
2023-02-11T00:53:39.645Z,12.73
2023-02-11T00:56:07.878Z,12.74
2023-02-11T00:58:35.791Z,12.75
2023-02-11T01:01:03.715Z,12.77
2023-02-11T01:03:31.641Z,12.76
2023-02-11T01:05:59.540Z,12.76
2023-02-11T01:08:27.444Z,12.76
2023-02-11T01:10:57.839Z,12.75
2023-02-11T01:13:25.843Z,12.78
2023-02-11T01:15:53.941Z,12.82
2023-02-11T01:18:22.030Z,12.87
2023-02-11T01:20:49.938Z,12.88
2023-02-11T01:23:17.815Z,12.97
2023-02-11T01:25:45.751Z,12.99
2023-02-11T01:28:17.627Z,13.04
2023-02-11T01:30:45.717Z,13.06
2023-02-11T01:33:13.814Z,13.06
2023-02-11T01:35:41.701Z,13.11
2023-02-11T01:38:09.823Z,13.12
2023-02-11T01:40:37.752Z,13.14
2023-02-11T01:43:05.601Z,13.14
2023-02-11T01:45:58.975Z,13.11
2023-02-11T01:48:29.039Z,13.15
2023-02-11T01:51:00.162Z,13.16
2023-02-11T01:53:53.877Z,13.14
2023-02-11T01:56:39.530Z,13.10
2023-02-11T01:59:09.051Z,13.06
2023-02-11T02:01:38.360Z,13.08
2023-02-11T02:04:06.268Z,13.10
2023-02-11T02:06:35.739Z,13.03
2023-02-11T02:09:05.120Z,13.15
2023-02-11T02:11:32.984Z,13.16
2023-02-11T02:14:00.920Z,13.14
2023-02-11T02:16:31.583Z,13.11
2023-02-11T02:19:11.675Z,13.13
2023-02-11T02:21:59.782Z,13.12
2023-02-11T02:24:50.698Z,12.95
2023-02-11T02:27:42.894Z,13.10
2023-02-11T02:30:22.395Z,13.10
2023-02-11T02:33:23.901Z,13.09
2023-02-11T02:35:56.577Z,12.97
2023-02-11T02:38:26.036Z,13.10
2023-02-11T02:40:56.935Z,13.10
2023-02-11T02:43:25.066Z,13.04
2023-02-11T02:45:53.000Z,13.13
2023-02-11T02:48:29.128Z,13.14
2023-02-11T02:51:00.989Z,13.15
2023-02-11T02:53:33.325Z,13.17
2023-02-11T02:56:02.530Z,13.16
2023-02-11T02:58:48.277Z,13.11
2023-02-11T03:01:21.508Z,13.08
2023-02-11T03:03:54.090Z,13.15
2023-02-11T03:06:27.913Z,13.06
2023-02-11T03:08:57.954Z,13.17
2023-02-11T03:11:25.838Z,13.08
2023-02-11T03:13:53.776Z,13.18
2023-02-11T03:16:23.151Z,13.06
2023-02-11T03:18:55.551Z,13.17
2023-02-11T03:21:23.456Z,13.16
2023-02-11T03:23:52.702Z,13.15
2023-02-11T03:26:24.556Z,13.13
2023-02-11T03:28:54.233Z,12.99
2023-02-11T03:31:27.005Z,13.02
2023-02-11T03:33:58.492Z,13.01
2023-02-11T03:36:28.737Z,12.96
2023-02-11T03:38:58.252Z,12.90
2023-02-11T03:41:26.163Z,12.88
2023-02-11T03:43:55.130Z,12.76
2023-02-11T03:46:25.166Z,12.78
2023-02-11T03:48:53.921Z,12.77
2023-02-11T03:51:23.375Z,12.76
2023-02-11T03:53:51.334Z,12.77
2023-02-11T03:56:21.679Z,12.77
2023-02-11T03:58:49.664Z,12.78
2023-02-11T04:01:17.707Z,12.80
2023-02-11T04:03:45.613Z,12.78
2023-02-11T04:06:13.591Z,12.82
2023-02-11T04:08:42.886Z,12.70
2023-02-11T04:11:10.910Z,12.81
2023-02-11T04:13:38.801Z,12.77
2023-02-11T04:16:06.950Z,12.73
2023-02-11T04:18:34.848Z,12.68
2023-02-11T04:21:02.783Z,12.62
2023-02-11T04:23:30.693Z,12.60
2023-02-11T04:25:59.992Z,12.59
2023-02-11T04:28:29.541Z,12.58
2023-02-11T04:30:57.577Z,12.60
2023-02-11T04:33:25.570Z,12.60
2023-02-11T04:35:53.481Z,12.63
2023-02-11T04:38:23.920Z,12.64
2023-02-11T04:40:51.928Z,12.62
2023-02-11T04:43:21.179Z,12.65
2023-02-11T04:45:49.337Z,12.64
2023-02-11T04:48:17.569Z,12.66
2023-02-11T04:50:45.424Z,12.67
2023-02-11T04:53:13.333Z,12.62
2023-02-11T04:55:41.256Z,12.69
2023-02-11T04:58:09.139Z,12.68
2023-02-11T05:00:38.431Z,12.68
2023-02-11T05:03:06.363Z,12.67
2023-02-11T05:05:34.242Z,12.65
2023-02-11T05:08:02.117Z,12.62
2023-02-11T05:10:30.013Z,12.61
2023-02-11T05:12:57.884Z,12.56
2023-02-11T05:15:25.773Z,12.54
2023-02-11T05:17:55.046Z,12.53
2023-02-11T05:20:23.024Z,12.56
2023-02-11T05:22:50.923Z,12.56
2023-02-11T05:25:20.588Z,12.60
2023-02-11T05:27:48.435Z,12.61
2023-02-11T05:30:16.338Z,12.60
2023-02-11T05:32:44.213Z,12.59
2023-02-11T05:35:13.767Z,12.58
2023-02-11T05:37:41.637Z,12.55
2023-02-11T05:40:10.057Z,12.56
2023-02-11T05:42:37.943Z,12.59
2023-02-11T05:45:06.298Z,12.63
2023-02-11T05:47:34.220Z,12.67
2023-02-11T05:50:02.118Z,12.70
2023-02-11T05:52:31.400Z,12.72
2023-02-11T05:54:59.353Z,12.71
2023-02-11T05:57:27.294Z,12.75
2023-02-11T05:59:55.159Z,12.73
2023-02-11T06:02:23.095Z,12.75
2023-02-11T06:04:51.055Z,12.78
2023-02-11T06:07:19.772Z,12.80
2023-02-11T06:09:50.315Z,12.71
2023-02-11T06:12:18.306Z,12.82
2023-02-11T06:14:46.237Z,12.83
2023-02-11T06:17:15.709Z,12.87
2023-02-11T06:19:43.675Z,12.88
2023-02-11T06:22:11.883Z,12.89
2023-02-11T06:24:59.962Z,12.91
2023-02-11T06:27:29.178Z,12.89
2023-02-11T06:29:57.043Z,12.88
2023-02-11T06:32:42.630Z,12.88
2023-02-11T06:35:12.401Z,12.89
2023-02-11T06:37:40.522Z,12.89
2023-02-11T06:40:08.813Z,12.74
2023-02-11T06:42:39.035Z,12.80
2023-02-11T06:45:09.106Z,12.91
2023-02-11T06:47:37.007Z,12.94
2023-02-11T06:50:05.873Z,12.91
2023-02-11T06:52:33.903Z,12.95
2023-02-11T06:55:02.178Z,12.96
2023-02-11T06:57:31.242Z,12.98
2023-02-11T07:00:00.517Z,12.99
2023-02-11T07:02:28.481Z,13.00
2023-02-11T07:04:56.416Z,13.00
2023-02-11T07:07:24.367Z,12.98
2023-02-11T07:09:52.210Z,12.96
2023-02-11T07:12:20.100Z,12.98
2023-02-11T07:14:47.985Z,12.98
2023-02-11T07:17:17.300Z,12.97
2023-02-11T07:19:45.226Z,12.96
2023-02-11T07:22:13.108Z,12.95
2023-02-11T07:24:41.089Z,12.94
2023-02-11T07:27:09.272Z,12.93
2023-02-11T07:29:37.385Z,12.90
2023-02-11T07:32:05.507Z,12.86
2023-02-11T07:34:34.935Z,12.90
2023-02-11T07:37:02.902Z,12.92
2023-02-11T07:39:30.798Z,12.91
2023-02-11T07:41:58.708Z,12.91
2023-02-11T07:44:26.578Z,12.88
2023-02-11T07:46:54.595Z,12.87
2023-02-11T07:49:22.504Z,12.86
2023-02-11T07:51:52.133Z,12.86
2023-02-11T07:54:20.004Z,12.88
2023-02-11T07:56:47.889Z,12.89
2023-02-11T07:59:15.776Z,12.93
2023-02-11T08:01:43.771Z,12.92
2023-02-11T08:04:11.700Z,12.90
2023-02-11T08:06:42.336Z,12.72
2023-02-11T08:09:14.812Z,12.91
2023-02-11T08:11:42.677Z,12.84
2023-02-11T08:14:10.714Z,12.86
2023-02-11T08:16:38.929Z,12.82
2023-02-11T08:19:07.763Z,12.82
2023-02-11T08:21:35.664Z,12.84
2023-02-11T08:24:03.549Z,12.87
2023-02-11T08:26:34.724Z,12.90
2023-02-11T08:29:03.985Z,12.94
2023-02-11T08:31:34.018Z,12.97
2023-02-11T08:34:06.383Z,12.99
2023-02-11T08:36:35.539Z,13.02
2023-02-11T08:39:18.062Z,13.05
2023-02-11T08:41:48.875Z,12.98
2023-02-11T08:44:16.964Z,13.04
2023-02-11T08:46:44.892Z,13.05
2023-02-11T08:49:12.811Z,13.04
2023-02-11T08:51:40.738Z,13.04
2023-02-11T08:54:09.905Z,13.05
2023-02-11T08:56:37.957Z,13.07
2023-02-11T08:59:07.262Z,13.11
2023-02-11T09:01:35.346Z,13.17
2023-02-11T09:04:03.313Z,13.22
2023-02-11T09:06:31.378Z,13.28
2023-02-11T09:08:59.304Z,13.32
2023-02-11T09:11:28.238Z,13.33
2023-02-11T09:13:56.174Z,13.37
2023-02-11T09:16:26.283Z,13.36
2023-02-11T09:19:00.330Z,13.33
2023-02-11T09:21:28.439Z,13.50
2023-02-11T09:23:56.333Z,13.54
2023-02-11T09:26:25.208Z,13.58
2023-02-11T09:28:53.093Z,13.62
2023-02-11T09:31:22.634Z,13.67
2023-02-11T09:33:53.988Z,13.73
2023-02-11T09:36:22.611Z,13.64
2023-02-11T09:38:50.697Z,13.75
2023-02-11T09:41:26.918Z,13.77
2023-02-11T09:43:55.377Z,13.65
2023-02-11T09:46:23.331Z,13.80
2023-02-11T09:48:54.127Z,13.73
2023-02-11T09:51:23.855Z,13.77
2023-02-11T09:53:52.417Z,13.60
2023-02-11T09:56:20.416Z,13.95
2023-02-11T09:58:48.352Z,14.00
2023-02-11T10:01:21.733Z,14.04
2023-02-11T10:04:12.177Z,14.09
2023-02-11T10:06:42.089Z,14.12
2023-02-11T10:09:17.590Z,14.17
2023-02-11T10:11:50.517Z,14.22
2023-02-11T10:14:27.091Z,14.26
2023-02-11T10:17:00.166Z,14.26
2023-02-11T10:19:36.419Z,14.35
2023-02-11T10:22:08.326Z,14.38
2023-02-11T10:24:36.272Z,14.30
2023-02-11T10:27:06.460Z,14.40
2023-02-11T10:29:37.105Z,14.44
2023-02-11T10:32:08.165Z,14.48
2023-02-11T10:34:39.217Z,14.50
2023-02-11T10:37:07.252Z,14.52
2023-02-11T10:39:35.332Z,14.55
2023-02-11T10:42:04.014Z,14.48
2023-02-11T10:44:33.232Z,14.62
2023-02-11T10:47:04.359Z,14.63
2023-02-11T10:49:38.250Z,14.72
2023-02-11T10:52:19.910Z,14.76
2023-02-11T10:55:01.909Z,14.81
2023-02-11T10:57:32.086Z,14.83
2023-02-11T11:00:01.571Z,14.79
2023-02-11T11:02:32.218Z,14.94
2023-02-11T11:05:02.545Z,14.99
2023-02-11T11:07:31.038Z,14.97
2023-02-11T11:10:00.285Z,15.07
2023-02-11T11:12:36.501Z,15.12
2023-02-11T11:15:16.554Z,15.11
2023-02-11T11:17:44.551Z,15.11
2023-02-11T11:20:21.302Z,15.06
2023-02-11T11:22:49.394Z,15.16
2023-02-11T11:25:24.797Z,15.17
2023-02-11T11:27:52.776Z,15.16
2023-02-11T11:30:20.801Z,15.11
2023-02-11T11:32:48.726Z,15.18
2023-02-11T11:35:26.438Z,15.13
2023-02-11T11:37:55.371Z,15.23
2023-02-11T11:40:24.577Z,15.27
2023-02-11T11:43:04.756Z,15.20
2023-02-11T11:45:32.623Z,15.32
2023-02-11T11:48:00.866Z,15.37
2023-02-11T11:50:32.098Z,15.32
2023-02-11T11:53:04.201Z,15.46
2023-02-11T11:55:35.138Z,15.52
2023-02-11T11:58:03.000Z,15.40
2023-02-11T12:00:36.392Z,15.61
2023-02-11T12:03:27.204Z,15.65
2023-02-11T12:06:04.622Z,15.67
2023-02-11T12:08:35.916Z,15.72
2023-02-11T12:11:07.967Z,15.74
2023-02-11T12:13:45.281Z,15.79
2023-02-11T12:16:20.495Z,15.83
2023-02-11T12:19:07.833Z,15.86
2023-02-11T12:21:41.005Z,15.90
2023-02-11T12:24:17.623Z,15.89
2023-02-11T12:26:46.711Z,15.94
2023-02-11T12:29:20.633Z,15.97
2023-02-11T12:31:56.229Z,16.03
2023-02-11T12:34:50.579Z,16.05
2023-02-11T12:37:31.067Z,16.07
2023-02-11T12:40:02.703Z,16.12
2023-02-11T12:42:53.288Z,16.11
2023-02-11T12:45:27.521Z,16.23
2023-02-11T12:48:06.673Z,16.27
2023-02-11T12:50:37.305Z,16.22
2023-02-11T12:53:25.346Z,16.45
2023-02-11T12:55:55.718Z,16.40
2023-02-11T12:58:35.467Z,16.60
2023-02-11T13:01:13.670Z,16.66
2023-02-11T13:03:42.849Z,16.62
2023-02-11T13:06:12.096Z,16.47
2023-02-11T13:08:42.242Z,16.72
2023-02-11T13:11:14.385Z,16.80
2023-02-11T13:13:48.553Z,16.78
2023-02-11T13:16:20.723Z,16.88
2023-02-11T13:18:51.822Z,16.92
2023-02-11T13:21:35.055Z,16.97
2023-02-11T13:24:09.270Z,17.00
2023-02-11T13:26:41.646Z,17.03
2023-02-11T13:29:17.279Z,17.05
2023-02-11T13:31:53.777Z,17.20
2023-02-11T13:34:26.341Z,17.28
2023-02-11T13:36:57.492Z,17.40
2023-02-11T13:39:26.812Z,17.46
2023-02-11T13:42:02.827Z,17.52
2023-02-11T13:44:30.778Z,17.57
2023-02-11T13:47:01.369Z,17.63
2023-02-11T13:49:35.352Z,17.73
2023-02-11T13:52:04.340Z,17.75
2023-02-11T13:54:35.173Z,17.84
2023-02-11T13:57:34.808Z,17.88
2023-02-11T14:00:03.692Z,17.70
2023-02-11T14:02:50.667Z,17.82
2023-02-11T14:05:44.678Z,17.84
2023-02-11T14:08:39.346Z,17.63
2023-02-11T14:11:12.424Z,17.65
2023-02-11T14:14:15.125Z,17.74
2023-02-11T14:17:22.506Z,17.74
2023-02-11T14:19:50.809Z,17.67
2023-02-11T14:22:20.728Z,17.75
2023-02-11T14:24:53.317Z,17.76
2023-02-11T14:27:28.755Z,17.68
2023-02-11T14:30:09.275Z,17.81
2023-02-11T14:32:42.689Z,17.87
2023-02-11T14:35:11.913Z,17.90
2023-02-11T14:37:50.366Z,17.84
2023-02-11T14:40:27.362Z,17.76
2023-02-11T14:42:56.936Z,17.60
2023-02-11T14:45:28.982Z,17.60
2023-02-11T14:47:59.358Z,17.54
2023-02-11T14:50:28.130Z,17.41
2023-02-11T14:52:57.743Z,17.47
2023-02-11T14:55:30.274Z,17.35
2023-02-11T14:58:13.812Z,17.28
2023-02-11T15:00:52.746Z,17.17
2023-02-11T15:03:31.589Z,17.11
2023-02-11T15:06:00.131Z,17.06
2023-02-11T15:08:28.222Z,16.99
2023-02-11T15:10:59.956Z,16.95
2023-02-11T15:13:32.035Z,16.57
2023-02-11T15:16:02.158Z,16.65
2023-02-11T15:18:35.299Z,16.82
2023-02-11T15:21:03.222Z,16.80
2023-02-11T15:23:31.092Z,16.76
2023-02-11T15:26:03.214Z,16.71
2023-02-11T15:28:33.644Z,16.68
2023-02-11T15:31:02.786Z,16.71
2023-02-11T15:33:32.264Z,16.72
2023-02-11T15:36:00.682Z,16.70
2023-02-11T15:38:29.895Z,16.66
2023-02-11T15:40:58.575Z,16.58
2023-02-11T15:43:26.447Z,16.55
2023-02-11T15:45:58.678Z,16.54
2023-02-11T15:48:29.046Z,16.48
2023-02-11T15:50:58.693Z,16.52
2023-02-11T15:53:30.517Z,16.46
2023-02-11T15:56:02.006Z,16.42
2023-02-11T15:58:30.150Z,16.36
2023-02-11T16:01:00.037Z,16.32
2023-02-11T16:03:32.390Z,16.31
2023-02-11T16:06:18.739Z,16.28
2023-02-11T16:08:58.025Z,16.20
2023-02-11T16:11:27.793Z,16.10
2023-02-11T16:13:55.773Z,15.97
2023-02-11T16:16:25.687Z,16.02
2023-02-11T16:19:04.261Z,16.00
2023-02-11T16:21:35.443Z,15.86
2023-02-11T16:24:03.919Z,15.94
2023-02-11T16:26:33.793Z,15.89
2023-02-11T16:29:11.251Z,15.90
2023-02-11T16:31:42.217Z,15.86
2023-02-11T16:34:15.145Z,15.82
2023-02-11T16:36:43.034Z,15.78
2023-02-11T16:39:11.073Z,15.72
2023-02-11T16:41:38.953Z,15.67
2023-02-11T16:44:06.902Z,15.69
2023-02-11T16:46:34.834Z,15.67
2023-02-11T16:49:09.245Z,15.63
2023-02-11T16:51:39.426Z,15.58
2023-02-11T16:54:07.354Z,15.55
2023-02-11T16:56:35.300Z,15.52
2023-02-11T16:59:03.277Z,15.50
2023-02-11T17:01:31.301Z,15.46
2023-02-11T17:03:59.194Z,15.41
2023-02-11T17:06:28.721Z,15.37
2023-02-11T17:08:56.690Z,15.33
2023-02-11T17:11:24.587Z,15.31
2023-02-11T17:13:52.420Z,15.27
2023-02-11T17:16:21.323Z,15.23
2023-02-11T17:18:49.346Z,15.15
2023-02-11T17:21:17.249Z,15.10
2023-02-11T17:23:46.892Z,15.01
2023-02-11T17:26:14.775Z,14.94
2023-02-11T17:28:43.732Z,14.90
2023-02-11T17:31:11.737Z,14.84
2023-02-11T17:33:39.871Z,14.78
2023-02-11T17:36:08.633Z,14.70
2023-02-11T17:38:36.984Z,14.63
2023-02-11T17:41:06.761Z,14.57
2023-02-11T17:43:34.623Z,14.51
2023-02-11T17:46:02.665Z,14.43
2023-02-11T17:48:30.725Z,14.35
2023-02-11T17:50:58.651Z,14.27
2023-02-11T17:53:26.575Z,14.15
2023-02-11T17:55:56.039Z,14.06
2023-02-11T17:58:25.277Z,13.95
2023-02-11T18:00:53.229Z,13.86
2023-02-11T18:03:21.147Z,13.82
2023-02-11T18:05:49.204Z,13.76
2023-02-11T18:08:17.211Z,13.66
2023-02-11T18:10:45.270Z,13.64
2023-02-11T18:13:13.381Z,13.55
2023-02-11T18:15:42.636Z,13.50
2023-02-11T18:18:10.543Z,13.41
2023-02-11T18:20:38.421Z,13.26
2023-02-11T18:23:06.332Z,13.24
2023-02-11T18:25:34.301Z,13.17
2023-02-11T18:28:02.547Z,13.12
2023-02-11T18:30:30.657Z,13.10
2023-02-11T18:32:59.947Z,13.09
2023-02-11T18:35:27.817Z,13.09
2023-02-11T18:37:55.691Z,13.12
2023-02-11T18:40:23.611Z,13.12
2023-02-11T18:42:51.508Z,13.16
2023-02-11T18:45:19.523Z,13.13
2023-02-11T18:47:47.409Z,13.25
2023-02-11T18:50:16.800Z,13.26
2023-02-11T18:52:44.799Z,13.24
2023-02-11T18:55:12.716Z,13.20
2023-02-11T18:57:40.606Z,13.16
2023-02-11T19:00:10.090Z,13.17
2023-02-11T19:02:38.055Z,13.15
2023-02-11T19:05:06.834Z,13.19
2023-02-11T19:07:36.538Z,13.18
2023-02-11T19:10:04.806Z,13.16
2023-02-11T19:12:33.177Z,13.13
2023-02-11T19:15:01.579Z,13.10
2023-02-11T19:17:29.525Z,13.10
2023-02-11T19:19:57.440Z,13.10
2023-02-11T19:22:25.337Z,13.11
2023-02-11T19:24:54.574Z,13.11
2023-02-11T19:27:22.452Z,13.12
2023-02-11T19:29:50.320Z,13.14
2023-02-11T19:32:18.243Z,13.15
2023-02-11T19:34:46.206Z,13.12
2023-02-11T19:37:14.230Z,13.14
2023-02-11T19:39:42.238Z,13.12
2023-02-11T19:42:11.568Z,13.12
2023-02-11T19:44:39.494Z,13.12
2023-02-11T19:47:07.893Z,13.13
2023-02-11T19:49:35.823Z,13.12
2023-02-11T19:52:03.683Z,13.11
2023-02-11T19:54:40.486Z,13.09
2023-02-11T19:57:08.383Z,13.08
2023-02-11T19:59:37.914Z,13.07
2023-02-11T20:02:05.815Z,13.07
2023-02-11T20:04:33.720Z,13.04
2023-02-11T20:07:01.598Z,13.00
2023-02-11T20:09:31.180Z,12.97
2023-02-11T20:11:59.172Z,12.96
2023-02-11T20:14:28.149Z,12.94
2023-02-11T20:16:57.647Z,12.94
2023-02-11T20:19:25.553Z,12.90
2023-02-11T20:21:55.749Z,12.81
2023-02-11T20:24:23.922Z,12.81
2023-02-11T20:26:55.530Z,12.80
2023-02-11T20:29:23.794Z,12.73
2023-02-11T20:31:51.854Z,12.68
2023-02-11T20:34:21.994Z,12.61
2023-02-11T20:36:52.074Z,12.55
2023-02-11T20:39:21.902Z,12.48
2023-02-11T20:41:50.320Z,12.41
2023-02-11T20:44:18.207Z,12.35
2023-02-11T20:46:47.105Z,12.27
2023-02-11T20:49:15.739Z,12.16
2023-02-11T20:51:45.095Z,12.08
2023-02-11T20:54:13.758Z,12.00
2023-02-11T20:56:41.678Z,11.89
2023-02-11T20:59:09.564Z,11.79
2023-02-11T21:01:40.310Z,11.73
2023-02-11T21:04:10.857Z,11.68
2023-02-11T21:06:39.768Z,11.62
2023-02-11T21:09:09.759Z,11.61
2023-02-11T21:11:37.661Z,11.61
2023-02-11T21:14:05.489Z,11.59
2023-02-11T21:16:33.383Z,11.60
2023-02-11T21:19:02.868Z,11.64
2023-02-11T21:21:30.894Z,11.64
2023-02-11T21:23:58.923Z,11.63
2023-02-11T21:26:28.173Z,11.65
2023-02-11T21:28:56.155Z,11.64
2023-02-11T21:31:26.139Z,11.61
2023-02-11T21:33:55.162Z,11.66
2023-02-11T21:36:23.149Z,11.66
2023-02-11T21:38:51.146Z,11.68
2023-02-11T21:41:19.086Z,11.70
2023-02-11T21:43:48.386Z,11.71
2023-02-11T21:46:16.720Z,11.72
2023-02-11T21:48:44.677Z,11.74
2023-02-11T21:51:14.015Z,11.72
2023-02-11T21:53:41.927Z,11.71
2023-02-11T21:56:10.993Z,11.74
2023-02-11T21:58:38.973Z,11.73
2023-02-11T22:01:13.458Z,11.68
2023-02-11T22:03:41.408Z,11.60
2023-02-11T22:06:10.079Z,11.57
2023-02-11T22:08:38.017Z,11.50
2023-02-11T22:11:06.374Z,11.50
2023-02-11T22:13:34.252Z,11.50
2023-02-11T22:16:02.813Z,11.46
2023-02-11T22:18:32.072Z,11.44
2023-02-11T22:21:00.960Z,11.41
2023-02-11T22:23:29.262Z,11.37
2023-02-11T22:25:57.319Z,11.31
2023-02-11T22:28:26.195Z,11.22
2023-02-11T22:30:55.373Z,11.18
2023-02-11T22:33:23.543Z,11.14
2023-02-11T22:35:58.671Z,11.07
2023-02-11T22:38:26.883Z,11.01
2023-02-11T22:40:54.780Z,10.97
2023-02-11T22:43:22.696Z,10.89
2023-02-11T22:45:50.789Z,10.92
2023-02-11T22:48:21.378Z,10.92
2023-02-11T22:50:52.102Z,10.92
2023-02-11T22:53:20.115Z,10.94
2023-02-11T22:55:47.976Z,10.94
2023-02-11T22:58:16.310Z,10.96
2023-02-11T23:00:44.203Z,10.96
2023-02-11T23:03:12.206Z,10.97
2023-02-11T23:05:40.237Z,10.97
2023-02-11T23:08:10.015Z,10.85
2023-02-11T23:10:38.008Z,10.89
2023-02-11T23:13:05.977Z,10.86
2023-02-11T23:15:33.986Z,10.83
2023-02-11T23:18:01.959Z,10.78
2023-02-11T23:20:29.900Z,10.71
2023-02-11T23:22:57.772Z,10.68
2023-02-11T23:25:27.168Z,10.64
2023-02-11T23:27:55.097Z,10.57
2023-02-11T23:30:23.164Z,10.53
2023-02-11T23:32:51.092Z,10.51
2023-02-11T23:35:23.228Z,10.51
2023-02-11T23:37:51.545Z,10.52
2023-02-11T23:40:19.736Z,10.51
2023-02-11T23:42:49.147Z,10.49
2023-02-11T23:45:17.275Z,10.45
2023-02-11T23:47:45.189Z,10.46
2023-02-11T23:50:13.358Z,10.45
2023-02-11T23:52:41.238Z,10.41
2023-02-11T23:55:09.436Z,10.39
2023-02-11T23:57:37.338Z,10.35
